Time;durP1;ratioP1;P1;durP2;ratioP2;P2;SDS_P1;SDS_P2;PMS_P1;PMS_P2;Temp;Humidity;BMP_temperature;BMP_pressure;BME280_temperature;BME280_humidity;BME280_pressure;Samples;Min_cycle;Max_cycle;Signal;HPM_P1;HPM_P2
2023/04/02 00:00:35;;;;;;;31.23;17.85;;;6.10;99.90;;;;;;5056660;28;20029;-84
2023/04/02 00:03:07;;;;;;;35.85;17.98;;;6.10;99.90;;;;;;5074377;28;20044;-85
2023/04/02 00:05:51;;;;;;;34.28;19.23;;;6.10;99.90;;;;;;5074543;28;20134;-84
2023/04/02 00:08:27;;;;;;;31.13;18.27;;;6.10;99.90;;;;;;5072588;28;20098;-85
2023/04/02 00:11:01;;;;;;;40.00;19.05;;;6.10;99.90;;;;;;5055937;28;20036;-84
2023/04/02 00:13:43;;;;;;;54.30;20.55;;;6.10;99.90;;;;;;5067706;28;20039;-84
2023/04/02 00:16:21;;;;;;;35.45;19.40;;;6.10;99.90;;;;;;5073173;28;20078;-85
2023/04/02 00:18:52;;;;;;;33.75;19.13;;;6.10;99.90;;;;;;5089488;28;20056;-84
2023/04/02 00:21:23;;;;;;;44.70;19.88;;;6.10;99.90;;;;;;5056309;28;20464;-84
2023/04/02 00:23:49;;;;;;;65.20;22.73;;;6.10;99.90;;;;;;5072758;28;20090;-85
2023/04/02 00:26:37;;;;;;;40.22;20.27;;;6.10;99.90;;;;;;5072683;28;20095;-84
2023/04/02 00:29:05;;;;;;;46.92;20.02;;;6.00;99.90;;;;;;5056027;28;20819;-84
2023/04/02 00:31:32;;;;;;;81.43;22.92;;;6.10;99.90;;;;;;5072643;28;20050;-84
2023/04/02 00:34:03;;;;;;;49.40;19.58;;;6.10;99.90;;;;;;5055799;28;20436;-85
2023/04/02 00:36:32;;;;;;;61.70;20.48;;;6.10;99.90;;;;;;5055992;28;20131;-85
2023/04/02 00:39:00;;;;;;;38.90;19.13;;;6.00;99.90;;;;;;5071892;28;20039;-84
2023/04/02 00:41:29;;;;;;;33.30;19.35;;;6.00;99.90;;;;;;5055889;28;20131;-85
2023/04/02 00:43:57;;;;;;;40.58;18.05;;;6.00;99.90;;;;;;5055665;28;20107;-84
2023/04/02 00:46:29;;;;;;;65.45;21.15;;;6.00;99.90;;;;;;5056031;28;20781;-84
2023/04/02 00:49:07;;;;;;;42.90;19.65;;;6.00;99.90;;;;;;5055676;28;20031;-84
2023/04/02 00:51:53;;;;;;;55.30;21.17;;;6.00;99.90;;;;;;5055430;28;20036;-85
2023/04/02 00:54:22;;;;;;;64.20;21.33;;;6.00;99.90;;;;;;5070665;28;20036;-84
2023/04/02 00:56:52;;;;;;;110.57;27.00;;;6.00;99.90;;;;;;5058229;28;20052;-84
2023/04/02 00:59:31;;;;;;;142.25;34.88;;;6.00;99.90;;;;;;5076970;28;20052;-84
2023/04/02 01:02:18;;;;;;;126.50;29.65;;;6.00;99.90;;;;;;5075700;28;20082;-84
2023/04/02 01:05:02;;;;;;;283.88;57.35;;;6.00;99.90;;;;;;5077253;28;20376;-84
2023/04/02 01:07:39;;;;;;;170.63;29.23;;;6.00;99.90;;;;;;5092546;28;20082;-84
2023/04/02 01:10:25;;;;;;;48.90;20.30;;;6.00;99.90;;;;;;5059078;28;20020;-83
2023/04/02 01:13:16;;;;;;;36.78;19.10;;;6.00;99.90;;;;;;5059093;28;20036;-84
2023/04/02 01:16:10;;;;;;;39.35;18.67;;;6.00;99.90;;;;;;5059517;28;20539;-85
2023/04/02 01:18:38;;;;;;;105.70;22.98;;;6.00;99.90;;;;;;5028763;28;20040;-85
2023/04/02 01:21:42;;;;;;;165.40;25.77;;;6.10;99.90;;;;;;5091051;28;20033;-85
2023/04/02 01:24:11;;;;;;;58.88;21.08;;;6.00;99.90;;;;;;5075735;28;20482;-85
2023/04/02 01:30:38;;;;;;;77.80;20.60;;;6.10;99.90;;;;;;5050868;28;20890;-84
2023/04/02 01:33:05;;;;;;;49.05;20.35;;;6.00;99.90;;;;;;5038118;28;20387;-85
2023/04/02 01:35:38;;;;;;;123.75;26.58;;;6.00;99.90;;;;;;5059010;28;20032;-85
2023/04/02 01:38:24;;;;;;;385.15;36.67;;;6.00;99.90;;;;;;5058335;28;20062;-84
2023/04/02 01:41:19;;;;;;;229.45;28.92;;;6.00;99.90;;;;;;5056644;28;20029;-84
2023/04/02 01:44:00;;;;;;;38.22;16.13;;;6.00;99.90;;;;;;5086573;28;20021;-84
2023/04/02 01:46:31;;;;;;;57.65;19.75;;;6.00;99.90;;;;;;5067296;28;20403;-85
2023/04/02 01:49:22;;;;;;;47.08;19.25;;;6.00;99.90;;;;;;5074834;28;20479;-84
2023/04/02 01:51:55;;;;;;;36.08;17.15;;;6.00;99.90;;;;;;5075557;28;20028;-85
2023/04/02 01:54:22;;;;;;;45.45;18.50;;;6.00;99.90;;;;;;5058720;28;20036;-84
2023/04/02 01:56:50;;;;;;;41.63;17.45;;;6.00;99.90;;;;;;5059073;28;20107;-84
2023/04/02 01:59:19;;;;;;;44.67;17.25;;;6.00;99.90;;;;;;5058486;28;20082;-85
2023/04/02 02:02:05;;;;;;;137.48;22.83;;;6.00;99.90;;;;;;5059717;28;20119;-85
2023/04/02 02:04:34;;;;;;;59.92;19.20;;;6.00;99.90;;;;;;5076287;28;20024;-85
2023/04/02 02:07:01;;;;;;;531.33;43.72;;;6.00;99.90;;;;;;5058989;28;20070;-85
2023/04/02 02:09:31;;;;;;;109.47;22.10;;;6.00;99.90;;;;;;5065847;28;20119;-83
2023/04/02 02:11:58;;;;;;;498.05;43.95;;;6.00;99.90;;;;;;5076620;28;20089;-84
2023/04/02 02:14:26;;;;;;;240.65;29.17;;;6.00;99.90;;;;;;5059993;28;20029;-85
2023/04/02 02:16:58;;;;;;;58.47;23.23;;;6.00;99.90;;;;;;5078067;28;20033;-85
2023/04/02 02:19:46;;;;;;;44.38;19.50;;;6.00;99.90;;;;;;5076320;28;20036;-85
2023/04/02 02:22:26;;;;;;;89.45;24.25;;;6.00;99.90;;;;;;5058531;28;20032;-85
2023/04/02 02:24:52;;;;;;;101.32;26.25;;;5.90;99.90;;;;;;5059341;28;20476;-85
2023/04/02 02:27:21;;;;;;;117.75;27.35;;;6.00;99.90;;;;;;5075188;28;20021;-84
2023/04/02 02:30:03;;;;;;;239.73;32.67;;;6.00;99.90;;;;;;5058287;28;20033;-84
2023/04/02 02:32:32;;;;;;;215.07;33.90;;;6.00;99.90;;;;;;5057992;28;20028;-85
2023/04/02 02:35:11;;;;;;;117.70;27.30;;;6.00;99.90;;;;;;5057811;28;20392;-84
2023/04/02 02:37:42;;;;;;;124.90;31.08;;;6.00;99.90;;;;;;5074649;28;20029;-85
2023/04/02 02:40:20;;;;;;;192.48;33.20;;;6.10;99.90;;;;;;5057980;28;20031;-85
2023/04/02 02:43:00;;;;;;;221.82;35.55;;;6.00;99.90;;;;;;5091159;28;20040;-85
2023/04/02 02:45:31;;;;;;;327.83;42.35;;;6.10;99.90;;;;;;5057311;28;20032;-85
2023/04/02 02:48:01;;;;;;;452.55;46.45;;;6.00;99.90;;;;;;5074073;28;20039;-84
2023/04/02 02:50:30;;;;;;;635.28;53.20;;;6.00;99.90;;;;;;5057098;28;20028;-84
2023/04/02 02:52:59;;;;;;;117.70;27.10;;;6.10;99.90;;;;;;5073775;28;20035;-84
2023/04/02 02:55:35;;;;;;;424.27;47.50;;;6.00;99.90;;;;;;5057650;28;20028;-83
2023/04/02 02:58:22;;;;;;;293.90;37.20;;;6.00;99.90;;;;;;5058098;28;20482;-84
2023/04/02 03:01:17;;;;;;;216.32;30.00;;;6.10;99.90;;;;;;5068058;28;20077;-84
2023/04/02 03:03:46;;;;;;;181.98;32.40;;;6.10;99.90;;;;;;5073506;28;20475;-84
2023/04/02 03:06:15;;;;;;;217.43;34.67;;;6.10;99.90;;;;;;5056920;28;20028;-84
2023/04/02 03:08:52;;;;;;;95.32;27.08;;;6.10;99.90;;;;;;5057108;28;20035;-84
2023/04/02 03:11:32;;;;;;;139.60;32.03;;;6.10;99.90;;;;;;5057017;28;20032;-84
2023/04/02 03:14:12;;;;;;;151.95;31.92;;;6.10;99.90;;;;;;5056403;28;20702;-84
2023/04/02 03:16:45;;;;;;;289.55;40.83;;;6.10;99.90;;;;;;5067526;28;20119;-84
2023/04/02 03:19:37;;;;;;;330.67;39.50;;;6.10;99.90;;;;;;5055936;28;20361;-84
2023/04/02 03:22:20;;;;;;;271.70;38.03;;;6.00;99.90;;;;;;5071933;28;20665;-85
2023/04/02 03:25:02;;;;;;;261.05;41.63;;;6.00;99.90;;;;;;5067322;28;20024;-84
2023/04/02 03:27:37;;;;;;;254.75;42.40;;;6.10;99.90;;;;;;5056269;28;20035;-84
2023/04/02 03:30:35;;;;;;;214.60;37.13;;;6.10;99.90;;;;;;5089901;28;20563;-85
2023/04/02 03:33:14;;;;;;;292.67;38.92;;;6.10;99.90;;;;;;5070675;28;20028;-85
2023/04/02 03:35:45;;;;;;;151.13;32.45;;;6.10;99.90;;;;;;5072519;28;20025;-85
2023/04/02 03:38:26;;;;;;;506.80;50.75;;;6.10;99.90;;;;;;5056302;28;20479;-84
2023/04/02 03:41:02;;;;;;;182.30;30.87;;;6.00;99.90;;;;;;5055917;28;20074;-84
2023/04/02 03:43:46;;;;;;;144.10;29.05;;;6.00;99.90;;;;;;5072681;28;20103;-84
2023/04/02 03:46:21;;;;;;;464.77;43.10;;;6.00;99.90;;;;;;5056225;28;20131;-84
2023/04/02 03:48:52;;;;;;;246.93;33.40;;;6.00;99.90;;;;;;5056006;28;20035;-84
2023/04/02 03:51:31;;;;;;;701.28;56.65;;;6.10;99.90;;;;;;5055460;28;20021;-84
2023/04/02 03:53:57;;;;;;;363.73;39.13;;;6.00;99.90;;;;;;5049396;28;20432;-84
2023/04/02 03:56:38;;;;;;;452.23;44.00;;;6.00;99.90;;;;;;5055007;28;20028;-85
2023/04/02 03:59:21;;;;;;;888.10;71.20;;;6.00;99.90;;;;;;5055524;28;20056;-85
2023/04/02 04:02:07;;;;;;;1027.22;69.13;;;6.00;99.90;;;;;;5055793;28;20809;-84
2023/04/02 04:04:39;;;;;;;822.83;61.97;;;6.00;99.90;;;;;;5044985;28;20033;-85
2023/04/02 04:07:11;;;;;;;779.03;60.92;;;6.00;99.90;;;;;;5055780;28;20029;-85
2023/04/02 04:09:40;;;;;;;1544.38;104.20;;;6.00;99.90;;;;;;5055049;28;20549;-85
2023/04/02 04:12:38;;;;;;;957.42;70.78;;;6.00;99.90;;;;;;5055230;28;20040;-85
2023/04/02 04:15:13;;;;;;;975.75;71.55;;;6.00;99.90;;;;;;5045049;28;20064;-84
2023/04/02 04:18:18;;;;;;;1051.65;75.18;;;6.00;99.90;;;;;;5055399;28;20038;-85
2023/04/02 04:21:02;;;;;;;546.55;46.72;;;6.00;99.90;;;;;;5024945;28;20032;-85
2023/04/02 04:23:37;;;;;;;653.90;55.58;;;6.00;99.90;;;;;;5057246;28;20036;-85
2023/04/02 04:26:19;;;;;;;657.03;60.60;;;6.00;99.90;;;;;;5056027;28;20025;-85
2023/04/02 04:29:08;;;;;;;686.00;59.42;;;6.00;99.90;;;;;;5055999;28;20169;-85
2023/04/02 04:31:45;;;;;;;356.45;39.80;;;6.00;99.90;;;;;;5070015;28;20039;-85
2023/04/02 04:34:18;;;;;;;584.03;51.42;;;6.00;99.90;;;;;;5040887;28;20056;-86
2023/04/02 04:36:55;;;;;;;669.97;53.90;;;6.00;99.90;;;;;;5055423;28;20029;-86
2023/04/02 04:39:48;;;;;;;763.75;61.42;;;6.00;99.90;;;;;;5064144;28;20032;-85
2023/04/02 04:42:37;;;;;;;811.03;66.93;;;6.00;99.90;;;;;;5071301;28;20111;-85
2023/04/02 04:45:08;;;;;;;326.17;40.58;;;6.00;99.90;;;;;;5055445;28;20028;-85
2023/04/02 04:47:40;;;;;;;1109.00;81.72;;;6.00;99.90;;;;;;5055436;28;20249;-85
2023/04/02 04:50:10;;;;;;;;;;;6.00;99.90;;;;;;5055669;28;20031;-83
2023/04/02 04:52:41;;;;;;;1349.93;86.30;;;6.00;99.90;;;;;;5055658;28;19951;-86
2023/04/02 04:55:25;;;;;;;1129.65;79.28;;;6.00;99.90;;;;;;5055009;28;20109;-85
2023/04/02 04:57:57;;;;;;;1254.57;87.82;;;6.00;99.90;;;;;;5072129;28;20024;-83
2023/04/02 05:00:58;;;;;;;1131.20;84.25;;;6.00;99.90;;;;;;5071602;28;20021;-85
2023/04/02 05:03:39;;;;;;;688.00;59.03;;;6.00;99.90;;;;;;5064238;28;20468;-88
2023/04/02 05:06:30;;;;;;;508.52;49.22;;;6.00;99.90;;;;;;5072585;28;20115;-88
2023/04/02 05:09:00;;;;;;;871.53;68.38;;;6.00;99.90;;;;;;5046977;28;20395;-87
2023/04/02 05:11:38;;;;;;;238.50;34.97;;;6.00;99.90;;;;;;5055561;28;20033;-87
2023/04/02 05:14:20;;;;;;;638.20;60.47;;;6.00;99.90;;;;;;5055773;28;20046;-87
2023/04/02 05:17:16;;;;;;;610.67;58.33;;;6.00;99.90;;;;;;5050092;28;20035;-87
2023/04/02 05:20:19;;;;;;;813.05;66.28;;;6.00;99.90;;;;;;5050707;28;20036;-88
2023/04/02 05:22:56;;;;;;;600.40;53.25;;;6.00;99.90;;;;;;4984840;28;20040;-88
2023/04/02 05:25:30;;;;;;;424.48;46.60;;;6.00;99.90;;;;;;5053981;28;20036;-88
2023/04/02 05:28:13;;;;;;;738.30;63.00;;;6.10;99.90;;;;;;5050524;28;20029;-87
2023/04/02 05:30:39;;;;;;;451.90;44.20;;;6.00;99.90;;;;;;5061571;28;20037;-87
2023/04/02 05:33:16;;;;;;;382.40;45.78;;;6.00;99.90;;;;;;5068743;28;20047;-87
2023/04/02 05:35:47;;;;;;;312.80;37.92;;;6.00;99.90;;;;;;5051304;28;20074;-87
2023/04/02 05:38:24;;;;;;;448.70;43.85;;;6.00;99.90;;;;;;5054182;28;20036;-87
2023/04/02 05:41:07;;;;;;;547.55;48.30;;;6.00;99.90;;;;;;5073392;28;20021;-88
2023/04/02 05:43:35;;;;;;;229.93;33.60;;;6.10;99.90;;;;;;5084175;28;20444;-88
2023/04/02 05:46:27;;;;;;;491.95;46.67;;;6.10;99.90;;;;;;5051335;28;20407;-88
2023/04/02 05:48:57;;;;;;;480.45;47.20;;;6.10;99.90;;;;;;5062777;28;20029;-87
2023/04/02 05:51:30;;;;;;;388.65;43.10;;;6.10;99.90;;;;;;5070092;28;21017;-87
2023/04/02 05:53:59;;;;;;;492.23;48.10;;;6.10;99.90;;;;;;5051253;28;20036;-87
2023/04/02 05:56:40;;;;;;;354.67;41.85;;;6.10;99.90;;;;;;5054858;28;20029;-87
2023/04/02 05:59:20;;;;;;;631.78;55.22;;;6.10;99.90;;;;;;5049949;28;20024;-87
2023/04/02 06:01:52;;;;;;;667.75;63.58;;;6.10;99.90;;;;;;5052283;28;20021;-87
2023/04/02 06:04:48;;;;;;;234.30;34.92;;;6.10;99.90;;;;;;5055411;28;20031;-88
2023/04/02 06:07:31;;;;;;;1161.18;88.68;;;6.10;99.90;;;;;;5061181;28;20101;-88
2023/04/02 06:10:13;;;;;;;767.10;65.05;;;6.20;99.90;;;;;;5044571;28;20056;-87
2023/04/02 06:13:01;;;;;;;709.70;60.25;;;6.20;99.90;;;;;;5042487;28;20032;-88
2023/04/02 06:15:29;;;;;;;814.92;64.55;;;6.10;99.90;;;;;;5060808;28;20025;-87
2023/04/02 06:18:22;;;;;;;758.20;61.10;;;6.10;99.90;;;;;;5072062;28;20120;-88
2023/04/02 06:20:50;;;;;;;528.63;50.55;;;6.20;99.90;;;;;;5060915;28;20495;-88
2023/04/02 06:23:31;;;;;;;927.33;71.25;;;6.20;99.90;;;;;;5071579;28;20021;-87
2023/04/02 06:26:18;;;;;;;944.22;69.82;;;6.20;99.90;;;;;;5063934;28;20025;-86
2023/04/02 06:28:55;;;;;;;298.30;35.03;;;6.20;99.90;;;;;;5054497;28;20060;-86
2023/04/02 06:31:27;;;;;;;549.80;50.25;;;6.30;99.90;;;;;;5087347;28;20032;-85
2023/04/02 06:33:55;;;;;;;615.97;53.03;;;6.20;99.90;;;;;;5063699;28;20032;-88
2023/04/02 06:36:26;;;;;;;287.02;35.17;;;6.20;99.90;;;;;;5066130;28;20025;-87
2023/04/02 06:38:57;;;;;;;587.20;51.60;;;6.20;99.90;;;;;;5066651;28;20029;-87
2023/04/02 06:41:23;;;;;;;;;;;6.30;99.90;;;;;;5068445;28;20024;-88
2023/04/02 06:44:27;;;;;;;308.52;46.08;;;6.40;99.90;;;;;;5055862;28;19913;-88
2023/04/02 06:46:58;;;;;;;183.05;34.28;;;6.30;99.90;;;;;;5070623;28;20040;-88
2023/04/02 06:49:35;;;;;;;526.90;48.00;;;6.40;99.90;;;;;;5069055;28;20035;-88
2023/04/02 06:52:13;;;;;;;851.65;60.25;;;6.30;99.90;;;;;;5056246;28;20085;-88
2023/04/02 06:54:39;;;;;;;143.13;27.23;;;6.30;99.90;;;;;;5060269;28;20111;-87
2023/04/02 06:57:09;;;;;;;502.48;49.58;;;6.30;99.90;;;;;;5071603;28;20035;-88
2023/04/02 06:59:39;;;;;;;428.03;43.47;;;6.30;99.90;;;;;;5053214;28;20024;-88
2023/04/02 07:02:25;;;;;;;209.90;33.05;;;6.40;99.90;;;;;;5055748;28;20048;-87
2023/04/02 07:04:52;;;;;;;632.67;53.92;;;6.40;99.90;;;;;;5069714;28;20078;-88
2023/04/02 07:07:20;;;;;;;269.55;31.65;;;6.50;99.90;;;;;;5050005;28;20067;-88
2023/04/02 07:09:47;;;;;;;217.20;34.25;;;6.50;99.90;;;;;;5052206;28;20078;-87
2023/04/02 07:12:19;;;;;;;391.38;43.20;;;6.60;99.90;;;;;;5067604;28;20024;-87
2023/04/02 07:14:46;;;;;;;231.77;30.37;;;6.50;99.90;;;;;;5054811;28;20059;-87
2023/04/02 07:17:16;;;;;;;440.35;40.35;;;6.60;99.90;;;;;;5053872;28;20300;-87
2023/04/02 07:19:47;;;;;;;240.48;29.73;;;6.50;99.90;;;;;;5052004;28;20021;-88
2023/04/02 07:22:18;;;;;;;641.97;54.00;;;6.50;99.90;;;;;;5039757;28;20021;-88
2023/04/02 07:24:48;;;;;;;569.47;46.83;;;6.50;99.90;;;;;;5049244;28;20028;-87
2023/04/02 07:27:14;;;;;;;689.55;49.83;;;6.40;99.90;;;;;;5058013;28;20483;-87
2023/04/02 07:29:43;;;;;;;186.20;30.25;;;6.50;99.90;;;;;;5053425;28;20980;-87
2023/04/02 07:32:13;;;;;;;497.73;44.72;;;6.60;99.90;;;;;;5051318;28;20503;-87
2023/04/02 07:34:40;;;;;;;496.85;55.70;;;6.70;99.90;;;;;;5067207;28;20800;-87
2023/04/02 07:37:06;;;;;;;589.30;52.40;;;6.70;99.90;;;;;;5063102;28;20321;-88
2023/04/02 07:39:32;;;;;;;545.03;47.28;;;6.70;99.90;;;;;;5047854;28;20463;-87
2023/04/02 07:42:00;;;;;;;300.02;34.75;;;6.70;99.90;;;;;;5069136;28;20020;-87
2023/04/02 07:44:26;;;;;;;326.98;35.30;;;6.80;99.90;;;;;;5047954;28;20427;-87
2023/04/02 07:46:52;;;;;;;94.60;26.17;;;6.80;99.90;;;;;;5077930;28;20028;-87
2023/04/02 07:49:18;;;;;;;60.08;22.17;;;6.90;99.90;;;;;;5051957;28;20029;-87
2023/04/02 07:51:44;;;;;;;223.98;30.45;;;7.10;99.90;;;;;;5052211;28;20092;-87
2023/04/02 07:54:10;;;;;;;331.20;33.78;;;7.30;99.90;;;;;;5051778;28;20456;-87
2023/04/02 07:56:36;;;;;;;574.75;44.65;;;7.40;99.90;;;;;;5055138;28;20032;-87
2023/04/02 07:59:03;;;;;;;151.40;24.10;;;7.50;99.90;;;;;;5084332;28;20828;-87
2023/04/02 08:01:34;;;;;;;33.17;17.00;;;7.60;99.90;;;;;;5065470;28;20048;-87
2023/04/02 08:04:01;;;;;;;29.25;17.05;;;7.70;99.90;;;;;;5053869;28;20033;-87
2023/04/02 08:06:28;;;;;;;24.95;14.88;;;7.80;99.90;;;;;;5050008;28;20484;-87
2023/04/02 08:08:53;;;;;;;22.38;14.98;;;7.80;99.90;;;;;;5061183;28;20486;-88
2023/04/02 08:11:19;;;;;;;20.52;14.77;;;7.70;99.90;;;;;;5062870;28;20029;-87
2023/04/02 08:13:45;;;;;;;20.73;14.02;;;7.90;99.90;;;;;;5066050;28;20086;-87
2023/04/02 08:16:11;;;;;;;22.88;14.55;;;8.00;99.90;;;;;;5056520;28;20078;-88
2023/04/02 08:18:37;;;;;;;22.80;15.50;;;8.00;99.90;;;;;;5056579;28;20028;-87
2023/04/02 08:21:07;;;;;;;18.83;13.50;;;7.90;99.90;;;;;;5054873;28;20039;-87
2023/04/02 08:23:33;;;;;;;14.73;11.77;;;8.00;99.90;;;;;;5055812;28;20028;-88
2023/04/02 08:25:59;;;;;;;18.27;13.02;;;8.00;99.90;;;;;;5073238;28;20463;-87
2023/04/02 08:28:25;;;;;;;18.38;12.77;;;8.10;99.90;;;;;;5089609;28;20071;-88
2023/04/02 08:30:51;;;;;;;15.70;12.38;;;8.10;99.90;;;;;;5056212;28;20069;-87
2023/04/02 08:33:18;;;;;;;19.40;13.73;;;8.00;99.90;;;;;;5055900;28;20111;-87
2023/04/02 08:35:46;;;;;;;15.30;11.90;;;8.00;99.90;;;;;;5055827;28;20029;-87
2023/04/02 08:38:16;;;;;;;17.38;10.50;;;7.90;99.90;;;;;;5055154;28;20054;-87
2023/04/02 08:40:46;;;;;;;14.20;8.02;;;8.00;99.90;;;;;;5055786;28;20162;-87
2023/04/02 08:43:29;;;;;;;11.18;7.90;;;8.20;99.90;;;;;;5074559;28;20103;-87
2023/04/02 08:46:10;;;;;;;9.13;8.00;;;8.40;99.90;;;;;;5050011;28;20025;-87
2023/04/02 08:48:42;;;;;;;8.18;7.25;;;8.90;99.90;;;;;;5055403;28;20028;-87
2023/04/02 08:51:35;;;;;;;5.88;4.80;;;9.00;99.90;;;;;;5056657;28;20036;-87
2023/04/02 08:54:21;;;;;;;8.48;5.78;;;9.40;99.90;;;;;;5068039;28;20048;-87
2023/04/02 08:57:23;;;;;;;6.82;5.45;;;9.40;99.90;;;;;;5057198;28;20043;-87
2023/04/02 09:00:19;;;;;;;6.93;5.28;;;9.60;99.90;;;;;;5088187;28;20035;-85
2023/04/02 09:02:53;;;;;;;7.47;6.20;;;9.80;99.90;;;;;;5090276;28;20387;-87
2023/04/02 09:05:26;;;;;;;5.63;4.82;;;10.00;99.90;;;;;;5073030;28;20028;-85
2023/04/02 09:07:54;;;;;;;6.43;5.15;;;10.20;99.90;;;;;;5055727;28;20025;-87
2023/04/02 09:10:27;;;;;;;5.95;5.35;;;10.10;99.90;;;;;;5073034;28;20025;-86
2023/04/02 09:12:52;;;;;;;6.53;4.93;;;10.30;99.90;;;;;;5056559;28;20025;-87
2023/04/02 09:15:29;;;;;;;13.02;8.75;;;10.30;99.90;;;;;;5072793;28;20032;-85
2023/04/02 09:18:15;;;;;;;5.57;4.88;;;10.30;99.90;;;;;;5072958;28;20387;-86
2023/04/02 09:20:41;;;;;;;5.95;3.80;;;10.30;99.90;;;;;;5093144;28;20081;-87
2023/04/02 09:23:16;;;;;;;9.13;6.82;;;10.40;99.90;;;;;;5076535;28;20054;-87
2023/04/02 09:25:48;;;;;;;8.45;6.53;;;10.40;99.90;;;;;;5076551;28;20070;-87
2023/04/02 09:28:15;;;;;;;5.75;4.20;;;10.60;99.90;;;;;;5076808;28;20020;-87
2023/04/02 09:31:06;;;;;;;4.38;3.97;;;10.30;99.90;;;;;;5067615;28;20028;-84
2023/04/02 09:34:21;;;;;;;8.63;5.78;;;10.10;99.90;;;;;;5063676;28;20063;-87
2023/04/02 09:36:47;;;;;;;13.05;6.95;;;10.20;99.90;;;;;;5063910;28;20056;-85
2023/04/02 09:39:18;;;;;;;6.75;5.72;;;10.20;99.90;;;;;;5073947;28;20058;-86
2023/04/02 09:41:45;;;;;;;6.68;5.97;;;10.00;99.90;;;;;;5063397;28;20051;-86
2023/04/02 09:44:25;;;;;;;6.03;5.32;;;10.00;99.90;;;;;;5065862;28;20095;-86
2023/04/02 09:47:03;;;;;;;5.93;5.18;;;10.00;99.90;;;;;;5075676;28;20022;-86
2023/04/02 09:49:33;;;;;;;4.22;3.05;;;9.90;99.90;;;;;;5069394;28;20037;-86
2023/04/02 09:52:08;;;;;;;3.65;2.70;;;9.60;99.90;;;;;;5083291;28;20029;-86
2023/04/02 09:54:40;;;;;;;4.53;3.60;;;9.40;99.90;;;;;;5066275;28;20028;-86
2023/04/02 09:57:22;;;;;;;3.75;3.40;;;9.30;99.90;;;;;;5065989;28;20036;-86
2023/04/02 10:00:17;;;;;;;55.50;24.05;;;9.30;99.90;;;;;;5049710;28;20075;-86
2023/04/02 10:02:45;;;;;;;29.08;14.20;;;9.30;99.90;;;;;;5058580;28;20120;-86
2023/04/02 10:05:26;;;;;;;24.75;13.13;;;9.30;99.90;;;;;;5066755;28;20044;-85
2023/04/02 10:07:53;;;;;;;4.47;3.50;;;9.40;99.90;;;;;;5061203;28;20459;-86
2023/04/02 10:10:59;;;;;;;3.95;2.50;;;9.50;99.90;;;;;;5048509;28;20082;-86
2023/04/02 10:13:50;;;;;;;3.05;2.72;;;9.40;99.90;;;;;;5021323;28;20033;-86
2023/04/02 10:17:00;;;;;;;4.43;3.33;;;9.30;99.90;;;;;;5053693;28;20141;-85
2023/04/02 10:19:34;;;;;;;3.08;1.88;;;8.90;99.90;;;;;;5020556;28;20499;-85
2023/04/02 10:22:07;;;;;;;1.13;1.02;;;8.20;99.90;;;;;;5035592;28;20033;-86
2023/04/02 10:24:33;;;;;;;1.48;1.00;;;7.80;99.90;;;;;;5049196;28;20120;-85
2023/04/02 10:27:25;;;;;;;1.83;1.17;;;7.70;99.90;;;;;;5066806;28;20420;-86
2023/04/02 10:30:13;;;;;;;7.28;2.47;;;7.60;99.90;;;;;;5056707;28;20036;-86
2023/04/02 10:32:54;;;;;;;5.35;1.67;;;7.50;99.90;;;;;;5067528;28;20033;-86
2023/04/02 10:35:35;;;;;;;1.60;0.70;;;7.40;99.90;;;;;;5073284;28;20024;-86
2023/04/02 10:38:20;;;;;;;4.00;2.15;;;7.50;99.90;;;;;;5086143;28;20357;-86
2023/04/02 10:41:03;;;;;;;4.80;2.30;;;7.60;99.90;;;;;;5058749;28;20052;-86
2023/04/02 10:43:47;;;;;;;3.22;1.58;;;7.50;99.90;;;;;;5057973;28;20024;-86
2023/04/02 10:46:31;;;;;;;3.33;1.85;;;7.70;99.90;;;;;;5058392;28;20032;-86
2023/04/02 10:49:15;;;;;;;3.53;1.70;;;7.70;99.90;;;;;;5058391;28;20040;-86
2023/04/02 10:51:57;;;;;;;2.55;0.60;;;7.80;99.90;;;;;;5074969;28;20036;-87
2023/04/02 10:54:48;;;;;;;3.67;1.20;;;7.90;99.90;;;;;;5074888;28;20040;-86
2023/04/02 10:57:26;;;;;;;;;;;8.20;99.90;;;;;;5072150;28;20074;-86
2023/04/02 11:00:15;;;;;;;2.05;1.70;;;8.50;99.90;;;;;;5058353;28;19913;-86
2023/04/02 11:02:54;;;;;;;2.95;1.80;;;8.70;99.90;;;;;;5048079;28;20036;-86
2023/04/02 11:06:03;;;;;;;1.50;1.38;;;8.70;99.90;;;;;;5071674;28;20024;-86
2023/04/02 11:08:41;;;;;;;1.83;1.20;;;8.90;99.90;;;;;;5069706;28;20037;-86
2023/04/02 11:11:15;;;;;;;2.28;0.70;;;8.60;99.90;;;;;;5057862;28;20056;-86
2023/04/02 11:13:56;;;;;;;2.85;1.20;;;8.50;99.90;;;;;;5074640;28;20150;-86
2023/04/02 11:16:22;;;;;;;1.55;1.40;;;8.70;99.90;;;;;;5074622;28;20035;-86
2023/04/02 11:19:07;;;;;;;1.75;1.20;;;8.80;99.90;;;;;;5058113;28;20123;-87
2023/04/02 11:22:15;;;;;;;1.85;1.20;;;8.80;99.90;;;;;;5074914;28;20547;-86
2023/04/02 11:24:54;;;;;;;1.13;0.95;;;8.70;99.90;;;;;;5054343;28;20058;-86
2023/04/02 11:27:28;;;;;;;1.25;1.15;;;8.60;99.90;;;;;;5057918;28;20036;-86
2023/04/02 11:29:59;;;;;;;2.08;1.20;;;8.50;99.90;;;;;;5057816;28;20032;-86
2023/04/02 11:32:30;;;;;;;1.85;1.00;;;8.50;99.90;;;;;;5074481;28;20530;-86
2023/04/02 11:34:58;;;;;;;1.60;0.98;;;8.40;99.90;;;;;;5075382;28;20031;-86
2023/04/02 11:37:38;;;;;;;10.15;1.80;;;8.20;99.90;;;;;;5074333;28;20345;-86
2023/04/02 11:40:54;;;;;;;4.32;2.78;;;8.00;99.90;;;;;;5075105;28;20032;-86
2023/04/02 11:43:32;;;;;;;3.05;2.13;;;8.00;99.90;;;;;;5069692;28;20028;-86
2023/04/02 11:46:35;;;;;;;1.60;1.50;;;7.80;99.90;;;;;;5073832;28;20102;-85
2023/04/02 11:49:37;;;;;;;1.52;1.42;;;7.50;99.90;;;;;;5068944;28;20414;-86
2023/04/02 11:52:04;;;;;;;1.83;1.73;;;7.30;99.90;;;;;;5064344;28;20033;-86
2023/04/02 11:54:36;;;;;;;2.80;2.38;;;7.20;99.90;;;;;;5057601;28;20047;-85
2023/04/02 11:57:23;;;;;;;2.55;2.35;;;7.50;99.90;;;;;;5039929;28;20119;-85
2023/04/02 12:00:00;;;;;;;4.72;3.63;;;7.60;99.90;;;;;;5064250;28;20087;-85
2023/04/02 12:02:54;;;;;;;7.03;2.80;;;8.00;99.90;;;;;;5066448;28;20525;-85
2023/04/02 12:05:35;;;;;;;2.47;2.28;;;7.90;99.90;;;;;;5070080;28;20025;-86
2023/04/02 12:08:36;;;;;;;4.50;3.22;;;7.90;99.90;;;;;;5069835;28;20029;-85
2023/04/02 12:11:02;;;;;;;2.97;1.98;;;8.00;99.90;;;;;;5067061;28;20029;-85
2023/04/02 12:13:40;;;;;;;3.65;1.65;;;7.90;99.90;;;;;;5058740;28;20484;-86
2023/04/02 12:16:13;;;;;;;4.25;2.58;;;7.90;99.90;;;;;;5062261;28;20028;-85
2023/04/02 12:18:45;;;;;;;5.35;2.63;;;8.00;99.90;;;;;;5074016;28;20029;-87
2023/04/02 12:21:18;;;;;;;2.58;2.05;;;8.30;99.90;;;;;;5065296;28;20468;-86
2023/04/02 12:23:46;;;;;;;2.05;1.85;;;8.10;99.90;;;;;;5054516;28;20033;-85
2023/04/02 12:26:30;;;;;;;3.83;2.85;;;8.10;99.90;;;;;;5079363;28;20376;-86
2023/04/02 12:29:20;;;;;;;3.50;3.15;;;7.90;99.90;;;;;;5071099;28;20025;-86
2023/04/02 12:31:47;;;;;;;3.67;2.60;;;7.50;99.90;;;;;;5045352;28;20033;-86
2023/04/02 12:34:18;;;;;;;3.53;2.53;;;7.50;99.90;;;;;;5061182;28;20028;-86
2023/04/02 12:36:51;;;;;;;;;;;7.70;99.90;;;;;;5044697;28;20087;-85
2023/04/02 12:39:17;;;;;;;3.13;2.50;;;7.60;99.90;;;;;;5088472;28;19966;-86
2023/04/02 12:41:43;;;;;;;3.38;3.08;;;7.60;99.90;;;;;;5059848;28;20388;-86
2023/04/02 12:44:17;;;;;;;3.17;2.88;;;7.60;99.90;;;;;;5052937;28;20379;-86
2023/04/02 12:46:45;;;;;;;9.40;4.95;;;7.80;99.90;;;;;;5075137;28;20030;-86
2023/04/02 12:49:30;;;;;;;3.05;2.72;;;8.00;99.90;;;;;;5068312;28;20021;-86
2023/04/02 12:51:56;;;;;;;2.83;2.53;;;8.10;99.90;;;;;;5060287;28;20132;-86
2023/04/02 12:54:22;;;;;;;3.28;2.45;;;8.20;99.90;;;;;;5057344;28;20032;-86
2023/04/02 12:56:49;;;;;;;3.45;2.50;;;8.20;99.90;;;;;;5058032;28;20044;-85
2023/04/02 12:59:33;;;;;;;4.47;3.45;;;8.30;99.90;;;;;;5059601;28;20080;-85
2023/04/02 13:02:02;;;;;;;9.55;4.47;;;8.10;99.90;;;;;;5082214;28;20020;-86
2023/04/02 13:04:28;;;;;;;3.10;2.80;;;8.10;99.90;;;;;;5076745;28;20031;-85
2023/04/02 13:06:55;;;;;;;2.50;2.20;;;7.90;99.90;;;;;;5058417;28;20447;-85
2023/04/02 13:09:29;;;;;;;2.42;2.20;;;7.80;99.90;;;;;;5056369;28;20104;-85
2023/04/02 13:11:55;;;;;;;2.40;2.20;;;7.90;99.90;;;;;;5059552;28;20028;-85
2023/04/02 13:14:23;;;;;;;2.72;2.53;;;8.00;99.90;;;;;;5055385;28;20444;-85
2023/04/02 13:16:48;;;;;;;3.22;2.30;;;8.30;99.90;;;;;;5056296;28;20075;-85
2023/04/02 13:19:26;;;;;;;2.15;1.70;;;8.70;99.90;;;;;;5055007;28;20032;-85
2023/04/02 13:21:53;;;;;;;4.75;2.38;;;8.80;99.90;;;;;;5074498;28;20439;-85
2023/04/02 13:24:27;;;;;;;2.50;2.20;;;9.00;99.90;;;;;;5071837;28;20020;-85
2023/04/02 13:26:56;;;;;;;2.47;2.17;;;8.60;99.90;;;;;;5072774;28;20468;-85
2023/04/02 13:29:33;;;;;;;2.15;1.55;;;8.40;99.90;;;;;;5056076;28;20123;-84
2023/04/02 13:32:04;;;;;;;2.70;1.50;;;8.10;99.90;;;;;;5072631;28;20062;-85